sensor_id;sensor_type;location;lat;lon;timestamp;P1;durP1;ratioP1;P2;durP2;ratioP2
5801;SDS011;2927;49.366;8.530;2023-09-30T00:01:01;3.70;;;1.40;;
5801;SDS011;2927;49.366;8.530;2023-09-30T00:03:28;2.00;;;1.80;;
5801;SDS011;2927;49.366;8.530;2023-09-30T00:05:53;4.10;;;1.67;;
5801;SDS011;2927;49.366;8.530;2023-09-30T00:08:20;5.10;;;1.67;;
5801;SDS011;2927;49.366;8.530;2023-09-30T00:10:46;4.00;;;1.40;;
5801;SDS011;2927;49.366;8.530;2023-09-30T00:13:12;2.80;;;1.57;;
5801;SDS011;2927;49.366;8.530;2023-09-30T00:15:38;7.23;;;2.27;;
5801;SDS011;2927;49.366;8.530;2023-09-30T00:18:03;4.80;;;2.07;;
5801;SDS011;2927;49.366;8.530;2023-09-30T00:20:30;9.33;;;2.03;;
5801;SDS011;2927;49.366;8.530;2023-09-30T00:22:56;5.90;;;1.80;;
5801;SDS011;2927;49.366;8.530;2023-09-30T00:25:21;5.80;;;1.73;;
5801;SDS011;2927;49.366;8.530;2023-09-30T00:27:47;9.53;;;2.70;;
5801;SDS011;2927;49.366;8.530;2023-09-30T00:30:13;7.10;;;2.50;;
5801;SDS011;2927;49.366;8.530;2023-09-30T00:32:39;3.70;;;2.30;;
5801;SDS011;2927;49.366;8.530;2023-09-30T00:35:05;2.90;;;2.20;;
5801;SDS011;2927;49.366;8.530;2023-09-30T00:37:36;6.13;;;1.93;;
5801;SDS011;2927;49.366;8.530;2023-09-30T00:40:02;8.03;;;2.17;;
5801;SDS011;2927;49.366;8.530;2023-09-30T00:42:29;6.20;;;2.20;;
5801;SDS011;2927;49.366;8.530;2023-09-30T00:44:54;2.40;;;1.87;;
5801;SDS011;2927;49.366;8.530;2023-09-30T00:47:20;4.13;;;2.27;;
5801;SDS011;2927;49.366;8.530;2023-09-30T00:49:46;1.87;;;1.60;;
5801;SDS011;2927;49.366;8.530;2023-09-30T00:52:11;3.50;;;1.87;;
5801;SDS011;2927;49.366;8.530;2023-09-30T00:54:38;5.27;;;2.20;;
5801;SDS011;2927;49.366;8.530;2023-09-30T00:57:04;3.10;;;1.67;;
5801;SDS011;2927;49.366;8.530;2023-09-30T00:59:33;3.10;;;2.03;;
5801;SDS011;2927;49.366;8.530;2023-09-30T01:01:59;5.23;;;1.87;;
5801;SDS011;2927;49.366;8.530;2023-09-30T01:04:28;2.53;;;2.00;;
5801;SDS011;2927;49.366;8.530;2023-09-30T01:06:54;3.70;;;2.30;;
5801;SDS011;2927;49.366;8.530;2023-09-30T01:09:22;3.27;;;2.13;;
5801;SDS011;2927;49.366;8.530;2023-09-30T01:11:47;2.63;;;2.10;;
5801;SDS011;2927;49.366;8.530;2023-09-30T01:17:07;4.00;;;1.53;;
5801;SDS011;2927;49.366;8.530;2023-09-30T01:19:33;5.07;;;2.07;;
5801;SDS011;2927;49.366;8.530;2023-09-30T01:21:59;4.23;;;2.03;;
5801;SDS011;2927;49.366;8.530;2023-09-30T01:24:27;4.10;;;1.67;;
5801;SDS011;2927;49.366;8.530;2023-09-30T01:26:53;6.47;;;2.10;;
5801;SDS011;2927;49.366;8.530;2023-09-30T01:29:19;1.93;;;1.70;;
5801;SDS011;2927;49.366;8.530;2023-09-30T01:31:45;4.33;;;2.40;;
5801;SDS011;2927;49.366;8.530;2023-09-30T01:34:15;2.40;;;1.73;;
5801;SDS011;2927;49.366;8.530;2023-09-30T01:36:42;2.57;;;1.87;;
5801;SDS011;2927;49.366;8.530;2023-09-30T01:39:09;2.37;;;2.00;;
5801;SDS011;2927;49.366;8.530;2023-09-30T01:41:35;2.77;;;2.27;;
5801;SDS011;2927;49.366;8.530;2023-09-30T01:44:01;3.40;;;1.73;;
5801;SDS011;2927;49.366;8.530;2023-09-30T01:46:27;3.13;;;1.90;;
5801;SDS011;2927;49.366;8.530;2023-09-30T01:48:53;4.73;;;2.20;;
5801;SDS011;2927;49.366;8.530;2023-09-30T01:51:18;2.67;;;2.17;;
5801;SDS011;2927;49.366;8.530;2023-09-30T01:53:43;5.90;;;2.30;;
5801;SDS011;2927;49.366;8.530;2023-09-30T01:56:09;8.70;;;2.47;;
5801;SDS011;2927;49.366;8.530;2023-09-30T01:58:35;7.97;;;2.17;;
5801;SDS011;2927;49.366;8.530;2023-09-30T02:01:01;3.60;;;2.40;;
5801;SDS011;2927;49.366;8.530;2023-09-30T02:03:28;3.17;;;1.90;;
5801;SDS011;2927;49.366;8.530;2023-09-30T02:05:54;5.53;;;2.20;;
5801;SDS011;2927;49.366;8.530;2023-09-30T02:08:21;10.77;;;2.87;;
5801;SDS011;2927;49.366;8.530;2023-09-30T02:10:47;3.13;;;2.30;;
5801;SDS011;2927;49.366;8.530;2023-09-30T02:13:13;3.13;;;2.30;;
5801;SDS011;2927;49.366;8.530;2023-09-30T02:15:42;6.93;;;2.87;;
5801;SDS011;2927;49.366;8.530;2023-09-30T02:18:07;7.23;;;2.63;;
5801;SDS011;2927;49.366;8.530;2023-09-30T02:20:34;7.87;;;3.10;;
5801;SDS011;2927;49.366;8.530;2023-09-30T02:23:04;3.57;;;2.60;;
5801;SDS011;2927;49.366;8.530;2023-09-30T02:25:35;10.83;;;2.60;;
5801;SDS011;2927;49.366;8.530;2023-09-30T02:28:04;5.43;;;2.93;;
5801;SDS011;2927;49.366;8.530;2023-09-30T02:30:31;5.00;;;3.27;;
5801;SDS011;2927;49.366;8.530;2023-09-30T02:32:57;4.40;;;2.80;;
5801;SDS011;2927;49.366;8.530;2023-09-30T02:35:22;4.37;;;2.50;;
5801;SDS011;2927;49.366;8.530;2023-09-30T02:37:48;3.73;;;3.40;;
5801;SDS011;2927;49.366;8.530;2023-09-30T02:40:17;5.20;;;3.13;;
5801;SDS011;2927;49.366;8.530;2023-09-30T02:42:44;6.67;;;3.27;;
5801;SDS011;2927;49.366;8.530;2023-09-30T02:45:11;6.03;;;3.47;;
5801;SDS011;2927;49.366;8.530;2023-09-30T02:47:37;6.80;;;2.97;;
5801;SDS011;2927;49.366;8.530;2023-09-30T02:50:05;4.80;;;2.90;;
5801;SDS011;2927;49.366;8.530;2023-09-30T02:52:34;6.07;;;3.60;;
5801;SDS011;2927;49.366;8.530;2023-09-30T02:55:01;9.33;;;4.07;;
5801;SDS011;2927;49.366;8.530;2023-09-30T02:57:27;7.73;;;3.50;;
5801;SDS011;2927;49.366;8.530;2023-09-30T02:59:53;4.30;;;3.67;;
5801;SDS011;2927;49.366;8.530;2023-09-30T03:02:19;5.90;;;3.30;;
5801;SDS011;2927;49.366;8.530;2023-09-30T03:04:46;7.80;;;3.00;;
5801;SDS011;2927;49.366;8.530;2023-09-30T03:07:12;5.07;;;3.40;;
5801;SDS011;2927;49.366;8.530;2023-09-30T03:09:38;6.80;;;4.07;;
5801;SDS011;2927;49.366;8.530;2023-09-30T03:12:04;4.60;;;3.47;;
5801;SDS011;2927;49.366;8.530;2023-09-30T03:14:30;4.67;;;3.13;;
5801;SDS011;2927;49.366;8.530;2023-09-30T03:16:57;4.43;;;3.37;;
5801;SDS011;2927;49.366;8.530;2023-09-30T03:19:23;3.10;;;2.83;;
5801;SDS011;2927;49.366;8.530;2023-09-30T03:21:49;12.40;;;3.80;;
5801;SDS011;2927;49.366;8.530;2023-09-30T03:24:16;5.93;;;3.43;;
5801;SDS011;2927;49.366;8.530;2023-09-30T03:26:41;5.47;;;3.30;;
5801;SDS011;2927;49.366;8.530;2023-09-30T03:29:07;6.27;;;3.70;;
5801;SDS011;2927;49.366;8.530;2023-09-30T03:31:34;7.30;;;4.57;;
5801;SDS011;2927;49.366;8.530;2023-09-30T03:34:01;5.63;;;3.60;;
5801;SDS011;2927;49.366;8.530;2023-09-30T03:36:29;6.43;;;3.70;;
5801;SDS011;2927;49.366;8.530;2023-09-30T03:38:54;8.50;;;4.30;;
5801;SDS011;2927;49.366;8.530;2023-09-30T03:41:20;8.33;;;4.97;;
5801;SDS011;2927;49.366;8.530;2023-09-30T03:43:46;8.20;;;3.73;;
5801;SDS011;2927;49.366;8.530;2023-09-30T03:46:14;11.27;;;3.70;;
5801;SDS011;2927;49.366;8.530;2023-09-30T03:48:40;6.50;;;3.87;;
5801;SDS011;2927;49.366;8.530;2023-09-30T03:51:08;8.90;;;3.87;;
5801;SDS011;2927;49.366;8.530;2023-09-30T03:53:43;5.40;;;3.20;;
5801;SDS011;2927;49.366;8.530;2023-09-30T03:56:11;11.40;;;4.30;;
5801;SDS011;2927;49.366;8.530;2023-09-30T03:58:40;5.00;;;3.30;;
5801;SDS011;2927;49.366;8.530;2023-09-30T04:01:07;5.00;;;3.73;;
5801;SDS011;2927;49.366;8.530;2023-09-30T04:03:36;9.67;;;4.40;;
5801;SDS011;2927;49.366;8.530;2023-09-30T04:06:04;5.90;;;4.33;;
5801;SDS011;2927;49.366;8.530;2023-09-30T04:08:30;5.50;;;4.00;;
5801;SDS011;2927;49.366;8.530;2023-09-30T04:10:58;7.60;;;4.33;;
5801;SDS011;2927;49.366;8.530;2023-09-30T04:13:24;9.30;;;4.33;;
5801;SDS011;2927;49.366;8.530;2023-09-30T04:15:50;5.20;;;4.07;;
5801;SDS011;2927;49.366;8.530;2023-09-30T04:18:16;14.00;;;4.60;;
5801;SDS011;2927;49.366;8.530;2023-09-30T04:20:41;9.33;;;3.87;;
5801;SDS011;2927;49.366;8.530;2023-09-30T04:23:07;7.40;;;5.00;;
5801;SDS011;2927;49.366;8.530;2023-09-30T04:25:34;6.23;;;4.50;;
5801;SDS011;2927;49.366;8.530;2023-09-30T04:28:00;6.77;;;4.83;;
5801;SDS011;2927;49.366;8.530;2023-09-30T04:30:27;12.83;;;5.10;;
5801;SDS011;2927;49.366;8.530;2023-09-30T04:32:53;7.97;;;5.17;;
5801;SDS011;2927;49.366;8.530;2023-09-30T04:35:19;9.53;;;5.13;;
5801;SDS011;2927;49.366;8.530;2023-09-30T04:37:45;7.80;;;4.50;;
5801;SDS011;2927;49.366;8.530;2023-09-30T04:40:10;8.30;;;4.67;;
5801;SDS011;2927;49.366;8.530;2023-09-30T04:42:40;5.80;;;4.43;;
5801;SDS011;2927;49.366;8.530;2023-09-30T04:45:08;5.83;;;4.27;;
5801;SDS011;2927;49.366;8.530;2023-09-30T04:47:35;10.20;;;5.57;;
5801;SDS011;2927;49.366;8.530;2023-09-30T04:50:01;9.13;;;4.63;;
5801;SDS011;2927;49.366;8.530;2023-09-30T04:52:32;5.87;;;3.97;;
5801;SDS011;2927;49.366;8.530;2023-09-30T04:54:58;7.33;;;4.83;;
5801;SDS011;2927;49.366;8.530;2023-09-30T04:57:25;7.60;;;4.60;;
5801;SDS011;2927;49.366;8.530;2023-09-30T04:59:51;7.80;;;4.67;;
5801;SDS011;2927;49.366;8.530;2023-09-30T05:02:17;10.87;;;4.97;;
5801;SDS011;2927;49.366;8.530;2023-09-30T05:04:42;10.33;;;4.63;;
5801;SDS011;2927;49.366;8.530;2023-09-30T05:07:08;8.53;;;5.33;;
5801;SDS011;2927;49.366;8.530;2023-09-30T05:09:33;12.97;;;5.37;;
5801;SDS011;2927;49.366;8.530;2023-09-30T05:11:59;10.70;;;6.00;;
5801;SDS011;2927;49.366;8.530;2023-09-30T05:14:25;9.37;;;5.13;;
5801;SDS011;2927;49.366;8.530;2023-09-30T05:16:50;16.10;;;5.70;;
5801;SDS011;2927;49.366;8.530;2023-09-30T05:19:16;9.90;;;6.17;;
5801;SDS011;2927;49.366;8.530;2023-09-30T05:21:41;21.33;;;6.93;;
5801;SDS011;2927;49.366;8.530;2023-09-30T05:24:09;9.57;;;5.20;;
5801;SDS011;2927;49.366;8.530;2023-09-30T05:26:35;10.60;;;5.90;;
5801;SDS011;2927;49.366;8.530;2023-09-30T05:29:01;12.10;;;5.37;;
5801;SDS011;2927;49.366;8.530;2023-09-30T05:31:27;9.17;;;6.03;;
5801;SDS011;2927;49.366;8.530;2023-09-30T05:33:53;10.87;;;6.40;;
5801;SDS011;2927;49.366;8.530;2023-09-30T05:36:19;14.13;;;6.90;;
5801;SDS011;2927;49.366;8.530;2023-09-30T05:38:45;12.50;;;7.50;;
5801;SDS011;2927;49.366;8.530;2023-09-30T05:41:13;13.97;;;6.33;;
5801;SDS011;2927;49.366;8.530;2023-09-30T05:43:39;9.10;;;6.70;;
5801;SDS011;2927;49.366;8.530;2023-09-30T05:46:08;11.83;;;6.80;;
5801;SDS011;2927;49.366;8.530;2023-09-30T05:48:35;14.53;;;7.53;;
5801;SDS011;2927;49.366;8.530;2023-09-30T05:51:04;14.70;;;7.80;;
5801;SDS011;2927;49.366;8.530;2023-09-30T05:53:29;10.53;;;6.10;;
5801;SDS011;2927;49.366;8.530;2023-09-30T05:55:57;11.73;;;7.00;;
5801;SDS011;2927;49.366;8.530;2023-09-30T05:58:24;13.83;;;6.83;;
5801;SDS011;2927;49.366;8.530;2023-09-30T06:00:51;9.27;;;5.87;;
5801;SDS011;2927;49.366;8.530;2023-09-30T06:03:19;11.80;;;6.00;;
5801;SDS011;2927;49.366;8.530;2023-09-30T06:05:47;12.30;;;6.17;;
5801;SDS011;2927;49.366;8.530;2023-09-30T06:08:13;14.07;;;6.20;;
5801;SDS011;2927;49.366;8.530;2023-09-30T06:10:39;10.50;;;5.93;;
5801;SDS011;2927;49.366;8.530;2023-09-30T06:13:09;10.40;;;6.27;;
5801;SDS011;2927;49.366;8.530;2023-09-30T06:15:42;9.83;;;6.10;;
5801;SDS011;2927;49.366;8.530;2023-09-30T06:18:09;11.00;;;6.03;;
5801;SDS011;2927;49.366;8.530;2023-09-30T06:20:37;6.73;;;4.70;;
5801;SDS011;2927;49.366;8.530;2023-09-30T06:23:03;14.40;;;6.00;;
5801;SDS011;2927;49.366;8.530;2023-09-30T06:25:28;9.37;;;6.20;;
5801;SDS011;2927;49.366;8.530;2023-09-30T06:27:55;11.53;;;6.00;;
5801;SDS011;2927;49.366;8.530;2023-09-30T06:30:21;11.00;;;4.90;;
5801;SDS011;2927;49.366;8.530;2023-09-30T06:32:47;9.33;;;5.57;;
5801;SDS011;2927;49.366;8.530;2023-09-30T06:35:13;11.73;;;5.47;;
5801;SDS011;2927;49.366;8.530;2023-09-30T06:37:39;12.30;;;5.90;;
5801;SDS011;2927;49.366;8.530;2023-09-30T06:40:05;9.87;;;5.37;;
5801;SDS011;2927;49.366;8.530;2023-09-30T06:42:33;14.80;;;5.63;;
5801;SDS011;2927;49.366;8.530;2023-09-30T06:44:59;7.20;;;5.20;;
5801;SDS011;2927;49.366;8.530;2023-09-30T06:47:24;9.33;;;4.87;;
5801;SDS011;2927;49.366;8.530;2023-09-30T06:49:50;9.97;;;5.03;;
5801;SDS011;2927;49.366;8.530;2023-09-30T06:52:16;10.63;;;4.63;;
5801;SDS011;2927;49.366;8.530;2023-09-30T06:54:42;8.17;;;4.20;;
5801;SDS011;2927;49.366;8.530;2023-09-30T06:57:07;12.57;;;4.80;;
5801;SDS011;2927;49.366;8.530;2023-09-30T06:59:34;10.07;;;4.20;;
5801;SDS011;2927;49.366;8.530;2023-09-30T07:02:00;7.20;;;4.10;;
5801;SDS011;2927;49.366;8.530;2023-09-30T07:04:25;8.50;;;3.60;;
5801;SDS011;2927;49.366;8.530;2023-09-30T07:06:52;12.13;;;4.50;;
5801;SDS011;2927;49.366;8.530;2023-09-30T07:09:18;7.03;;;3.90;;
5801;SDS011;2927;49.366;8.530;2023-09-30T07:11:45;11.00;;;3.50;;
5801;SDS011;2927;49.366;8.530;2023-09-30T07:14:10;8.40;;;3.90;;
5801;SDS011;2927;49.366;8.530;2023-09-30T07:16:36;11.90;;;4.60;;
5801;SDS011;2927;49.366;8.530;2023-09-30T07:19:02;12.03;;;4.17;;
5801;SDS011;2927;49.366;8.530;2023-09-30T07:21:28;7.23;;;4.10;;
5801;SDS011;2927;49.366;8.530;2023-09-30T07:23:53;9.73;;;3.70;;
5801;SDS011;2927;49.366;8.530;2023-09-30T07:26:23;10.40;;;4.00;;
5801;SDS011;2927;49.366;8.530;2023-09-30T07:28:50;11.20;;;3.77;;
5801;SDS011;2927;49.366;8.530;2023-09-30T07:31:15;6.50;;;3.00;;
5801;SDS011;2927;49.366;8.530;2023-09-30T07:33:42;7.80;;;3.80;;
5801;SDS011;2927;49.366;8.530;2023-09-30T07:36:08;6.90;;;3.53;;
5801;SDS011;2927;49.366;8.530;2023-09-30T07:38:33;7.70;;;3.30;;
5801;SDS011;2927;49.366;8.530;2023-09-30T07:41:00;9.97;;;4.27;;
5801;SDS011;2927;49.366;8.530;2023-09-30T07:43:27;12.50;;;3.80;;
5801;SDS011;2927;49.366;8.530;2023-09-30T07:45:53;6.87;;;3.13;;
5801;SDS011;2927;49.366;8.530;2023-09-30T07:48:19;8.30;;;4.00;;
5801;SDS011;2927;49.366;8.530;2023-09-30T07:50:45;8.17;;;3.33;;
5801;SDS011;2927;49.366;8.530;2023-09-30T07:53:12;13.57;;;3.70;;
5801;SDS011;2927;49.366;8.530;2023-09-30T07:55:37;13.60;;;3.30;;
5801;SDS011;2927;49.366;8.530;2023-09-30T07:58:04;8.73;;;3.87;;
5801;SDS011;2927;49.366;8.530;2023-09-30T08:00:30;6.80;;;3.77;;
5801;SDS011;2927;49.366;8.530;2023-09-30T08:02:55;6.10;;;3.47;;
5801;SDS011;2927;49.366;8.530;2023-09-30T08:05:21;5.03;;;3.03;;
5801;SDS011;2927;49.366;8.530;2023-09-30T08:07:47;7.93;;;2.60;;
5801;SDS011;2927;49.366;8.530;2023-09-30T08:10:13;7.73;;;3.37;;
5801;SDS011;2927;49.366;8.530;2023-09-30T08:12:41;9.40;;;3.50;;
5801;SDS011;2927;49.366;8.530;2023-09-30T08:15:07;12.23;;;3.10;;
5801;SDS011;2927;49.366;8.530;2023-09-30T08:17:33;4.57;;;2.80;;
5801;SDS011;2927;49.366;8.530;2023-09-30T08:19:59;9.37;;;3.33;;
5801;SDS011;2927;49.366;8.530;2023-09-30T08:22:25;10.30;;;3.07;;
5801;SDS011;2927;49.366;8.530;2023-09-30T08:24:53;9.00;;;3.97;;
5801;SDS011;2927;49.366;8.530;2023-09-30T08:27:20;5.13;;;3.20;;
5801;SDS011;2927;49.366;8.530;2023-09-30T08:29:45;10.87;;;2.70;;
5801;SDS011;2927;49.366;8.530;2023-09-30T08:32:11;5.30;;;2.80;;
5801;SDS011;2927;49.366;8.530;2023-09-30T08:34:37;10.88;;;3.55;;
5801;SDS011;2927;49.366;8.530;2023-09-30T08:37:02;9.35;;;3.63;;
5801;SDS011;2927;49.366;8.530;2023-09-30T08:39:28;7.20;;;2.90;;
5801;SDS011;2927;49.366;8.530;2023-09-30T08:41:54;7.18;;;2.70;;
5801;SDS011;2927;49.366;8.530;2023-09-30T08:44:21;5.95;;;2.92;;
5801;SDS011;2927;49.366;8.530;2023-09-30T08:46:47;5.22;;;2.60;;
5801;SDS011;2927;49.366;8.530;2023-09-30T08:49:14;14.13;;;3.00;;
5801;SDS011;2927;49.366;8.530;2023-09-30T08:51:40;4.88;;;2.75;;
5801;SDS011;2927;49.366;8.530;2023-09-30T08:54:06;6.95;;;3.00;;
5801;SDS011;2927;49.366;8.530;2023-09-30T08:56:32;5.43;;;3.17;;
5801;SDS011;2927;49.366;8.530;2023-09-30T08:58:59;7.78;;;2.80;;
5801;SDS011;2927;49.366;8.530;2023-09-30T09:01:27;6.13;;;2.58;;
5801;SDS011;2927;49.366;8.530;2023-09-30T09:03:53;6.25;;;3.00;;
5801;SDS011;2927;49.366;8.530;2023-09-30T09:06:20;4.38;;;2.13;;
5801;SDS011;2927;49.366;8.530;2023-09-30T09:08:49;7.43;;;2.85;;
5801;SDS011;2927;49.366;8.530;2023-09-30T09:11:16;5.93;;;2.80;;
5801;SDS011;2927;49.366;8.530;2023-09-30T09:13:52;3.58;;;2.30;;
5801;SDS011;2927;49.366;8.530;2023-09-30T09:16:21;4.20;;;2.40;;
5801;SDS011;2927;49.366;8.530;2023-09-30T09:18:47;5.53;;;2.92;;
5801;SDS011;2927;49.366;8.530;2023-09-30T09:21:20;6.65;;;2.90;;
5801;SDS011;2927;49.366;8.530;2023-09-30T09:23:49;3.47;;;2.05;;
5801;SDS011;2927;49.366;8.530;2023-09-30T09:26:23;3.53;;;2.30;;
5801;SDS011;2927;49.366;8.530;2023-09-30T09:28:56;7.57;;;3.22;;
5801;SDS011;2927;49.366;8.530;2023-09-30T09:31:26;5.90;;;2.58;;
5801;SDS011;2927;49.366;8.530;2023-09-30T09:34:00;8.45;;;2.72;;
5801;SDS011;2927;49.366;8.530;2023-09-30T09:36:41;6.03;;;3.28;;
5801;SDS011;2927;49.366;8.530;2023-09-30T09:39:08;4.07;;;2.70;;
5801;SDS011;2927;49.366;8.530;2023-09-30T09:41:53;3.83;;;2.58;;
5801;SDS011;2927;49.366;8.530;2023-09-30T09:44:22;3.13;;;2.25;;
5801;SDS011;2927;49.366;8.530;2023-09-30T09:46:50;5.32;;;2.90;;
5801;SDS011;2927;49.366;8.530;2023-09-30T09:49:16;6.75;;;3.13;;
5801;SDS011;2927;49.366;8.530;2023-09-30T09:51:43;6.03;;;2.70;;
5801;SDS011;2927;49.366;8.530;2023-09-30T09:54:10;9.82;;;3.72;;
5801;SDS011;2927;49.366;8.530;2023-09-30T09:56:37;6.20;;;2.75;;
5801;SDS011;2927;49.366;8.530;2023-09-30T09:59:04;4.53;;;2.43;;
5801;SDS011;2927;49.366;8.530;2023-09-30T10:01:31;9.30;;;3.33;;
5801;SDS011;2927;49.366;8.530;2023-09-30T10:03:58;10.97;;;2.80;;
5801;SDS011;2927;49.366;8.530;2023-09-30T10:06:24;3.80;;;2.97;;
5801;SDS011;2927;49.366;8.530;2023-09-30T10:08:53;7.50;;;3.57;;
5801;SDS011;2927;49.366;8.530;2023-09-30T10:11:22;7.80;;;2.73;;
5801;SDS011;2927;49.366;8.530;2023-09-30T10:13:53;8.37;;;2.90;;
5801;SDS011;2927;49.366;8.530;2023-09-30T10:24:44;5.83;;;2.60;;
5801;SDS011;2927;49.366;8.530;2023-09-30T10:30:13;7.90;;;3.03;;
5801;SDS011;2927;49.366;8.530;2023-09-30T10:35:18;5.63;;;3.37;;
5801;SDS011;2927;49.366;8.530;2023-09-30T10:41:00;7.60;;;3.43;;
5801;SDS011;2927;49.366;8.530;2023-09-30T10:45:56;4.80;;;2.93;;
5801;SDS011;2927;49.366;8.530;2023-09-30T10:50:59;7.57;;;3.63;;
5801;SDS011;2927;49.366;8.530;2023-09-30T10:53:27;7.70;;;3.37;;
5801;SDS011;2927;49.366;8.530;2023-09-30T10:55:54;9.60;;;3.80;;
5801;SDS011;2927;49.366;8.530;2023-09-30T11:01:07;8.80;;;3.90;;
5801;SDS011;2927;49.366;8.530;2023-09-30T11:03:33;8.40;;;3.60;;
5801;SDS011;2927;49.366;8.530;2023-09-30T11:06:01;10.70;;;4.20;;
5801;SDS011;2927;49.366;8.530;2023-09-30T11:08:29;6.80;;;4.07;;
5801;SDS011;2927;49.366;8.530;2023-09-30T11:10:55;7.30;;;4.50;;
5801;SDS011;2927;49.366;8.530;2023-09-30T11:13:21;10.70;;;4.53;;
5801;SDS011;2927;49.366;8.530;2023-09-30T11:15:47;7.53;;;3.60;;
5801;SDS011;2927;49.366;8.530;2023-09-30T11:18:24;8.63;;;4.57;;
5801;SDS011;2927;49.366;8.530;2023-09-30T11:20:49;9.93;;;4.73;;
5801;SDS011;2927;49.366;8.530;2023-09-30T11:23:27;14.17;;;3.97;;
5801;SDS011;2927;49.366;8.530;2023-09-30T11:25:53;7.80;;;4.40;;
5801;SDS011;2927;49.366;8.530;2023-09-30T11:28:19;12.93;;;4.83;;
5801;SDS011;2927;49.366;8.530;2023-09-30T11:30:53;9.20;;;4.00;;
5801;SDS011;2927;49.366;8.530;2023-09-30T11:33:27;9.90;;;4.47;;
5801;SDS011;2927;49.366;8.530;2023-09-30T11:35:55;7.27;;;3.57;;
5801;SDS011;2927;49.366;8.530;2023-09-30T11:38:29;5.83;;;3.57;;
5801;SDS011;2927;49.366;8.530;2023-09-30T11:43:29;12.83;;;5.30;;
5801;SDS011;2927;49.366;8.530;2023-09-30T11:46:08;11.57;;;5.20;;
5801;SDS011;2927;49.366;8.530;2023-09-30T11:48:39;14.47;;;3.83;;
5801;SDS011;2927;49.366;8.530;2023-09-30T11:51:22;14.23;;;5.57;;
5801;SDS011;2927;49.366;8.530;2023-09-30T11:53:51;10.73;;;3.60;;
5801;SDS011;2927;49.366;8.530;2023-09-30T11:56:18;10.80;;;5.23;;
5801;SDS011;2927;49.366;8.530;2023-09-30T11:58:44;7.97;;;3.43;;
5801;SDS011;2927;49.366;8.530;2023-09-30T12:01:11;14.70;;;4.90;;
5801;SDS011;2927;49.366;8.530;2023-09-30T12:03:38;12.77;;;5.57;;
5801;SDS011;2927;49.366;8.530;2023-09-30T12:06:05;13.37;;;4.53;;
5801;SDS011;2927;49.366;8.530;2023-09-30T12:08:31;10.13;;;4.90;;
5801;SDS011;2927;49.366;8.530;2023-09-30T12:10:57;10.77;;;4.50;;
5801;SDS011;2927;49.366;8.530;2023-09-30T12:13:24;10.73;;;3.70;;
5801;SDS011;2927;49.366;8.530;2023-09-30T12:15:50;10.73;;;4.73;;
5801;SDS011;2927;49.366;8.530;2023-09-30T12:18:18;7.50;;;4.23;;
5801;SDS011;2927;49.366;8.530;2023-09-30T12:20:48;9.10;;;3.87;;
5801;SDS011;2927;49.366;8.530;2023-09-30T12:23:14;7.33;;;3.37;;
5801;SDS011;2927;49.366;8.530;2023-09-30T12:25:40;11.90;;;4.37;;
5801;SDS011;2927;49.366;8.530;2023-09-30T12:28:05;11.00;;;4.70;;
5801;SDS011;2927;49.366;8.530;2023-09-30T12:30:31;7.80;;;3.67;;
5801;SDS011;2927;49.366;8.530;2023-09-30T12:32:57;8.47;;;3.90;;
5801;SDS011;2927;49.366;8.530;2023-09-30T12:35:23;6.87;;;3.97;;
5801;SDS011;2927;49.366;8.530;2023-09-30T12:37:50;11.40;;;4.43;;
5801;SDS011;2927;49.366;8.530;2023-09-30T12:40:15;11.20;;;3.77;;
5801;SDS011;2927;49.366;8.530;2023-09-30T12:42:42;11.00;;;4.30;;
5801;SDS011;2927;49.366;8.530;2023-09-30T12:45:08;12.87;;;4.70;;
5801;SDS011;2927;49.366;8.530;2023-09-30T12:47:34;9.40;;;4.50;;
5801;SDS011;2927;49.366;8.530;2023-09-30T12:50:00;12.30;;;5.03;;
5801;SDS011;2927;49.366;8.530;2023-09-30T12:52:26;12.20;;;5.20;;
5801;SDS011;2927;49.366;8.530;2023-09-30T12:54:51;6.60;;;3.63;;
5801;SDS011;2927;49.366;8.530;2023-09-30T12:57:17;7.37;;;4.27;;
5801;SDS011;2927;49.366;8.530;2023-09-30T12:59:43;13.33;;;4.97;;
5801;SDS011;2927;49.366;8.530;2023-09-30T13:02:15;8.50;;;4.20;;
5801;SDS011;2927;49.366;8.530;2023-09-30T13:04:43;10.40;;;4.57;;
5801;SDS011;2927;49.366;8.530;2023-09-30T13:07:09;11.63;;;4.50;;
5801;SDS011;2927;49.366;8.530;2023-09-30T13:09:46;13.50;;;4.00;;
5801;SDS011;2927;49.366;8.530;2023-09-30T13:12:13;17.70;;;4.40;;
5801;SDS011;2927;49.366;8.530;2023-09-30T13:14:38;7.47;;;4.20;;
5801;SDS011;2927;49.366;8.530;2023-09-30T13:17:04;7.10;;;3.67;;
5801;SDS011;2927;49.366;8.530;2023-09-30T13:19:31;10.90;;;4.47;;
5801;SDS011;2927;49.366;8.530;2023-09-30T13:21:58;11.37;;;4.17;;
5801;SDS011;2927;49.366;8.530;2023-09-30T13:24:23;14.90;;;6.17;;
5801;SDS011;2927;49.366;8.530;2023-09-30T13:26:49;12.50;;;4.70;;
5801;SDS011;2927;49.366;8.530;2023-09-30T13:29:17;8.93;;;4.10;;
5801;SDS011;2927;49.366;8.530;2023-09-30T13:31:43;6.83;;;3.57;;
5801;SDS011;2927;49.366;8.530;2023-09-30T13:34:10;10.73;;;4.60;;
5801;SDS011;2927;49.366;8.530;2023-09-30T13:36:39;11.83;;;3.50;;
5801;SDS011;2927;49.366;8.530;2023-09-30T13:39:04;14.63;;;4.20;;
5801;SDS011;2927;49.366;8.530;2023-09-30T13:41:33;16.40;;;4.93;;
5801;SDS011;2927;49.366;8.530;2023-09-30T13:44:00;7.53;;;3.50;;
5801;SDS011;2927;49.366;8.530;2023-09-30T13:46:25;7.47;;;3.90;;
5801;SDS011;2927;49.366;8.530;2023-09-30T13:48:53;9.00;;;4.03;;
5801;SDS011;2927;49.366;8.530;2023-09-30T13:51:18;9.97;;;4.47;;
5801;SDS011;2927;49.366;8.530;2023-09-30T13:53:45;12.40;;;4.00;;
5801;SDS011;2927;49.366;8.530;2023-09-30T13:56:11;20.10;;;4.20;;
5801;SDS011;2927;49.366;8.530;2023-09-30T13:58:36;12.53;;;4.90;;
5801;SDS011;2927;49.366;8.530;2023-09-30T14:01:02;8.83;;;4.50;;
5801;SDS011;2927;49.366;8.530;2023-09-30T14:03:29;7.70;;;3.20;;
5801;SDS011;2927;49.366;8.530;2023-09-30T14:05:55;18.97;;;4.70;;
5801;SDS011;2927;49.366;8.530;2023-09-30T14:08:22;7.50;;;3.30;;
5801;SDS011;2927;49.366;8.530;2023-09-30T14:10:49;5.83;;;3.40;;
5801;SDS011;2927;49.366;8.530;2023-09-30T14:13:16;8.83;;;3.63;;
5801;SDS011;2927;49.366;8.530;2023-09-30T14:15:42;8.33;;;4.03;;
5801;SDS011;2927;49.366;8.530;2023-09-30T14:18:07;11.40;;;3.93;;
5801;SDS011;2927;49.366;8.530;2023-09-30T14:20:33;10.30;;;4.10;;
5801;SDS011;2927;49.366;8.530;2023-09-30T14:22:59;10.60;;;3.63;;
5801;SDS011;2927;49.366;8.530;2023-09-30T14:25:26;10.90;;;4.20;;
5801;SDS011;2927;49.366;8.530;2023-09-30T14:27:52;9.07;;;4.50;;
5801;SDS011;2927;49.366;8.530;2023-09-30T14:30:18;12.80;;;4.67;;
5801;SDS011;2927;49.366;8.530;2023-09-30T14:32:46;10.27;;;4.30;;
5801;SDS011;2927;49.366;8.530;2023-09-30T14:35:11;8.03;;;3.60;;
5801;SDS011;2927;49.366;8.530;2023-09-30T14:37:37;9.13;;;4.80;;
5801;SDS011;2927;49.366;8.530;2023-09-30T14:40:03;12.10;;;4.20;;
5801;SDS011;2927;49.366;8.530;2023-09-30T14:42:36;9.50;;;5.20;;
5801;SDS011;2927;49.366;8.530;2023-09-30T14:45:06;8.60;;;3.83;;
5801;SDS011;2927;49.366;8.530;2023-09-30T14:47:33;7.53;;;4.20;;
5801;SDS011;2927;49.366;8.530;2023-09-30T14:49:58;7.57;;;4.27;;
5801;SDS011;2927;49.366;8.530;2023-09-30T14:52:26;12.30;;;4.40;;
5801;SDS011;2927;49.366;8.530;2023-09-30T14:54:52;9.30;;;4.47;;
5801;SDS011;2927;49.366;8.530;2023-09-30T14:57:18;10.40;;;4.10;;
5801;SDS011;2927;49.366;8.530;2023-09-30T14:59:45;10.50;;;4.77;;
5801;SDS011;2927;49.366;8.530;2023-09-30T15:02:11;10.67;;;4.90;;
5801;SDS011;2927;49.366;8.530;2023-09-30T15:04:37;7.30;;;3.67;;
5801;SDS011;2927;49.366;8.530;2023-09-30T15:07:03;9.77;;;4.20;;
5801;SDS011;2927;49.366;8.530;2023-09-30T15:09:28;10.40;;;4.40;;
5801;SDS011;2927;49.366;8.530;2023-09-30T15:11:54;7.80;;;4.17;;
5801;SDS011;2927;49.366;8.530;2023-09-30T15:14:19;11.40;;;4.80;;
5801;SDS011;2927;49.366;8.530;2023-09-30T15:16:45;10.03;;;4.23;;
5801;SDS011;2927;49.366;8.530;2023-09-30T15:19:11;5.90;;;3.33;;
5801;SDS011;2927;49.366;8.530;2023-09-30T15:21:36;8.87;;;4.20;;
5801;SDS011;2927;49.366;8.530;2023-09-30T15:24:03;9.17;;;3.87;;
5801;SDS011;2927;49.366;8.530;2023-09-30T15:26:29;7.80;;;3.53;;
5801;SDS011;2927;49.366;8.530;2023-09-30T15:28:56;11.37;;;4.10;;
5801;SDS011;2927;49.366;8.530;2023-09-30T15:31:26;7.47;;;3.53;;
5801;SDS011;2927;49.366;8.530;2023-09-30T15:33:53;10.80;;;4.03;;
5801;SDS011;2927;49.366;8.530;2023-09-30T15:36:18;12.63;;;4.30;;
5801;SDS011;2927;49.366;8.530;2023-09-30T15:38:45;10.83;;;4.70;;